Time;durP1;ratioP1;P1;durP2;ratioP2;P2;SDS_P1;SDS_P2;PMS_P1;PMS_P2;Temp;Humidity;BMP_temperature;BMP_pressure;BME280_temperature;BME280_humidity;BME280_pressure;Samples;Min_cycle;Max_cycle;Signal;HPM_P1;HPM_P2
2022/01/17 00:00:00;;;;;;;20.88;3.22;;;;;;;;;;5100116;27;20114;-81
2022/01/17 00:02:28;;;;;;;22.42;2.90;;;;;;;;;;5089592;28;20042;-81
2022/01/17 00:04:54;;;;;;;27.67;3.65;;;;;;;;;;5096049;27;20031;-81
2022/01/17 00:07:20;;;;;;;19.95;2.85;;;;;;;;;;5104504;27;20161;-81
2022/01/17 00:09:47;;;;;;;21.85;3.10;;;;;;;;;;5089974;28;20046;-81
2022/01/17 00:12:13;;;;;;;22.73;2.28;;;;;;;;;;5095445;27;20680;-80
2022/01/17 00:14:41;;;;;;;12.20;1.58;;;;;;;;;;5092324;27;20752;-81
2022/01/17 00:19:41;;;;;;;18.58;2.65;;;;;;;;;;5093043;27;20043;-80
2022/01/17 00:22:08;;;;;;;22.25;2.47;;;;;;;;;;5101358;27;20046;-81
2022/01/17 00:24:34;;;;;;;26.40;3.85;;;;;;;;;;5089433;27;20406;-81
2022/01/17 00:27:00;;;;;;;20.23;3.33;;;;;;;;;;5078197;27;20071;-81
2022/01/17 00:29:27;;;;;;;19.90;2.75;;;;;;;;;;5109229;27;20086;-81
2022/01/17 00:31:53;;;;;;;20.85;2.85;;;;;;;;;;5096688;27;20114;-81
2022/01/17 00:34:19;;;;;;;21.83;3.22;;;;;;;;;;5081853;27;20039;-80
2022/01/17 00:36:46;;;;;;;14.52;2.47;;;;;;;;;;5083608;27;20492;-81
2022/01/17 00:39:12;;;;;;;21.10;2.88;;;;;;;;;;5077370;28;20039;-81
2022/01/17 00:41:38;;;;;;;20.02;3.13;;;;;;;;;;5076856;27;20086;-81
2022/01/17 00:44:05;;;;;;;11.18;2.20;;;;;;;;;;5102928;27;20499;-81
2022/01/17 00:46:32;;;;;;;15.48;1.80;;;5.60;99.90;;;;;;5096038;28;20042;-81
2022/01/17 00:48:58;;;;;;;20.02;1.88;;;;;;;;;;5091261;28;20106;-81
2022/01/17 00:51:24;;;;;;;24.00;2.85;;;;;;;;;;5081247;27;20130;-80
2022/01/17 00:53:51;;;;;;;22.70;2.15;;;;;;;;;;5101511;27;20039;-81
2022/01/17 00:56:19;;;;;;;17.63;3.05;;;;;;;;;;5098554;27;20031;-81
2022/01/17 00:58:45;;;;;;;20.92;2.65;;;;;;;;;;5085767;27;20154;-81
2022/01/17 01:01:12;;;;;;;23.42;2.75;;;;;;;;;;5082774;27;20389;-81
2022/01/17 01:03:38;;;;;;;22.35;2.85;;;;;;;;;;5107623;27;20070;-80
2022/01/17 01:06:05;;;;;;;17.75;2.63;;;;;;;;;;5108993;27;20099;-81
2022/01/17 01:08:31;;;;;;;21.52;2.78;;;;;;;;;;5084602;28;20123;-81
2022/01/17 01:10:57;;;;;;;23.95;2.35;;;;;;;;;;5097747;27;20050;-80
2022/01/17 01:13:27;;;;;;;10.02;1.67;;;;;;;;;;5102339;28;20049;-81
2022/01/17 01:29:02;;;;;;;22.70;2.27;;;;;;;;;;5095690;27;20057;-81
2022/01/17 01:31:41;;;;;;;27.10;3.22;;;4.60;1.00;;;;;;5113649;27;20038;-81
2022/01/17 01:34:08;;;;;;;26.27;3.40;;;;;;;;;;5102215;27;20044;-81
2022/01/17 01:36:35;;;;;;;19.45;2.78;;;;;;;;;;5102689;27;20486;-81
2022/01/17 01:39:04;;;;;;;16.27;2.80;;;4.80;99.90;;;;;;5114830;27;20047;-82
2022/01/17 01:41:30;;;;;;;28.80;2.63;;;;;;;;;;5100313;27;20092;-81
2022/01/17 01:43:56;;;;;;;21.35;2.63;;;;;;;;;;5104929;27;20180;-81
2022/01/17 01:46:23;;;;;;;16.33;2.67;;;;;;;;;;5103198;27;20039;-81
2022/01/17 01:48:49;;;;;;;16.65;2.92;;;;;;;;;;5095637;28;20104;-82
2022/01/17 01:51:16;;;;;;;13.23;2.20;;;;;;;;;;5101411;27;20078;-82
2022/01/17 01:53:42;;;;;;;26.70;3.65;;;;;;;;;;5097037;27;20123;-81
2022/01/17 01:56:09;;;;;;;26.48;4.05;;;;;;;;;;5106577;27;20126;-82
2022/01/17 01:58:35;;;;;;;13.30;2.22;;;;;;;;;;5097344;27;20031;-82
2022/01/17 02:01:01;;;;;;;15.35;2.72;;;;;;;;;;5102127;27;20031;-80
2022/01/17 02:03:27;;;;;;;10.93;2.05;;;;;;;;;;5100578;27;20089;-81
2022/01/17 02:05:53;;;;;;;10.02;1.88;;;;;;;;;;5094311;28;20403;-81
2022/01/17 02:08:20;;;;;;;25.52;2.50;;;;;;;;;;5079319;27;20585;-82
2022/01/17 02:10:46;;;;;;;23.15;3.17;;;;;;;;;;5105727;27;20469;-81
2022/01/17 02:13:12;;;;;;;18.80;2.83;;;;;;;;;;5093560;27;20796;-81
2022/01/17 02:15:40;;;;;;;21.42;2.72;;;;;;;;;;5093496;27;20127;-81
2022/01/17 02:18:07;;;;;;;17.80;2.20;;;;;;;;;;5095193;27;20116;-81
2022/01/17 02:20:42;;;;;;;23.50;2.78;;;;;;;;;;5096875;28;20038;-81
2022/01/17 02:23:08;;;;;;;21.85;2.63;;;;;;;;;;5106779;27;20053;-81
2022/01/17 02:25:35;;;;;;;26.25;2.33;;;;;;;;;;5104307;27;20514;-81
2022/01/17 02:28:01;;;;;;;24.15;4.13;;;;;;;;;;5081166;27;20039;-81
2022/01/17 02:30:31;;;;;;;20.58;2.33;;;;;;;;;;5080705;27;20047;-81
2022/01/17 02:32:58;;;;;;;27.10;3.45;;;;;;;;;;5084784;27;20081;-81
2022/01/17 02:35:24;;;;;;;24.23;2.60;;;;;;;;;;5106434;27;20047;-81
2022/01/17 02:37:51;;;;;;;27.73;3.15;;;;;;;;;;5100954;27;20043;-81
2022/01/17 02:40:19;;;;;;;14.07;2.15;;;5.50;99.90;;;;;;5092550;27;20036;-81
2022/01/17 02:42:48;;;;;;;25.45;2.53;;;;;;;;;;5082536;27;20232;-82
2022/01/17 02:45:32;;;;;;;28.20;3.55;;;;;;;;;;5095767;28;20054;-82
2022/01/17 02:48:03;;;;;;;23.45;3.22;;;;;;;;;;5083446;27;20042;-82
2022/01/17 02:50:29;;;;;;;24.90;3.05;;;;;;;;;;5097547;27;20085;-82
2022/01/17 02:52:59;;;;;;;15.25;2.88;;;;;;;;;;5098786;27;20035;-82
2022/01/17 02:55:26;;;;;;;16.45;2.45;;;;;;;;;;5084158;27;20042;-82
2022/01/17 02:57:52;;;;;;;25.73;3.97;;;;;;;;;;5099605;27;20038;-82
2022/01/17 03:00:18;;;;;;;13.00;2.30;;;;;;;;;;5101575;27;20043;-81
2022/01/17 03:02:48;;;;;;;15.52;2.22;;;;;;;;;;5081976;27;20035;-81
2022/01/17 03:05:15;;;;;;;18.00;3.00;;;;;;;;;;5099964;27;20126;-81
2022/01/17 03:07:41;;;;;;;16.63;2.72;;;;;;;;;;5101503;27;20046;-82
2022/01/17 03:10:15;;;;;;;15.77;2.00;;;;;;;;;;5102766;28;20035;-82
2022/01/17 03:12:41;;;;;;;10.65;1.70;;;;;;;;;;5091088;28;20585;-81
2022/01/17 03:15:08;;;;;;;17.23;2.25;;;;;;;;;;5095583;27;20727;-82
2022/01/17 03:17:34;;;;;;;14.82;2.55;;;;;;;;;;5099127;27;20443;-82
2022/01/17 03:20:00;;;;;;;12.27;1.67;;;;;;;;;;5081680;27;20046;-82
2022/01/17 03:22:27;;;;;;;18.50;2.17;;;;;;;;;;5073168;28;20045;-82
2022/01/17 03:24:53;;;;;;;22.35;2.92;;;;;;;;;;5085036;27;20066;-82
2022/01/17 03:27:19;;;;;;;20.60;2.90;;;;;;;;;;5096921;27;20047;-82
2022/01/17 03:29:45;;;;;;;19.35;3.35;;;;;;;;;;5086211;27;20047;-82
2022/01/17 03:32:11;;;;;;;18.45;2.38;;;;;;;;;;5103760;27;20491;-82
2022/01/17 03:34:39;;;;;;;14.82;2.13;;;;;;;;;;5108190;27;20132;-82
2022/01/17 03:37:05;;;;;;;18.10;2.92;;;;;;;;;;5102469;27;20493;-81
2022/01/17 03:39:32;;;;;;;18.58;2.30;;;;;;;;;;5097399;27;20055;-82
2022/01/17 03:41:59;;;;;;;17.63;2.22;;;;;;;;;;5099718;28;20109;-82
2022/01/17 03:44:25;;;;;;;20.98;3.25;;;;;;;;;;5095277;27;20371;-82
2022/01/17 03:46:51;;;;;;;20.75;2.65;;;;;;;;;;5077093;28;20040;-82
2022/01/17 03:49:17;;;;;;;16.67;2.42;;;;;;;;;;5096146;28;20152;-82
2022/01/17 03:51:44;;;;;;;21.75;3.08;;;;;;;;;;5094484;28;20410;-81
2022/01/17 03:54:10;;;;;;;18.17;2.30;;;6.20;99.90;;;;;;5100532;27;20242;-82
2022/01/17 03:56:36;;;;;;;19.88;2.90;;;;;;;;;;5086978;28;20181;-82
2022/01/17 03:59:02;;;;;;;13.88;2.58;;;;;;;;;;5079945;28;20045;-82
2022/01/17 04:01:28;;;;;;;17.90;3.08;;;;;;;;;;5096074;28;20035;-82
2022/01/17 04:03:55;;;;;;;22.40;2.90;;;;;;;;;;5082356;28;20085;-82
2022/01/17 04:06:22;;;;;;;23.00;3.10;;;;;;;;;;5109211;27;20035;-82
2022/01/17 04:08:48;;;;;;;26.67;3.10;;;;;;;;;;5083681;28;20062;-82
2022/01/17 04:11:14;;;;;;;26.13;3.70;;;;;;;;;;5096723;27;20044;-82
2022/01/17 04:13:40;;;;;;;21.95;3.08;;;;;;;;;;5098060;27;20853;-82
2022/01/17 04:16:06;;;;;;;19.08;2.83;;;;;;;;;;5077917;28;20082;-82
2022/01/17 04:18:32;;;;;;;24.25;3.92;;;;;;;;;;5098984;28;20288;-82
2022/01/17 04:21:02;;;;;;;16.10;3.53;;;;;;;;;;5096115;28;20496;-82
2022/01/17 04:23:28;;;;;;;17.90;3.53;;;;;;;;;;5092159;27;20040;-81
2022/01/17 04:25:54;;;;;;;18.25;3.28;;;;;;;;;;5075227;28;20078;-82
2022/01/17 04:28:20;;;;;;;35.90;3.50;;;;;;;;;;5076937;28;20043;-82
2022/01/17 04:30:47;;;;;;;20.30;2.97;;;;;;;;;;5073298;28;20092;-82
2022/01/17 04:33:13;;;;;;;19.88;3.22;;;6.40;99.90;;;;;;5079380;28;20079;-81
2022/01/17 04:35:41;;;;;;;21.67;3.85;;;6.50;99.90;;;;;;5085907;28;20044;-81
2022/01/17 04:38:16;;;;;;;20.55;2.55;;;;;;;;;;5070392;28;20040;-81
2022/01/17 04:40:45;;;;;;;14.63;3.20;;;;;;;;;;5077483;28;20035;-81
2022/01/17 04:43:44;;;;;;;25.55;3.15;;;;;;;;;;5097339;28;20356;-80
2022/01/17 04:46:08;;;;;;;22.73;3.35;;;;;;;;;;5091246;28;20495;-80
2022/01/17 04:48:34;;;;;;;15.68;2.65;;;;;;;;;;5086471;28;20050;-80
2022/01/17 04:51:01;;;;;;;15.90;2.50;;;;;;;;;;5080686;28;20055;-80
2022/01/17 04:53:31;;;;;;;19.08;3.30;;;6.20;99.90;;;;;;5091993;28;20044;-80
2022/01/17 04:55:58;;;;;;;19.67;3.47;;;;;;;;;;5095524;28;20040;-81
2022/01/17 04:58:24;;;;;;;17.95;3.35;;;;;;;;;;5078851;28;20036;-81
2022/01/17 05:00:51;;;;;;;18.20;3.13;;;;;;;;;;5092002;28;20390;-81
2022/01/17 05:03:20;;;;;;;14.23;3.05;;;6.40;99.90;;;;;;5078147;28;20043;-80
2022/01/17 05:05:46;;;;;;;19.25;3.63;;;;;;;;;;5090832;28;20063;-81
2022/01/17 05:08:13;;;;;;;15.18;3.08;;;;;;;;;;5095192;28;20056;-81
2022/01/17 05:10:41;;;;;;;22.83;3.83;;;;;;;;;;5079127;28;20044;-81
2022/01/17 05:13:09;;;;;;;18.20;3.05;;;;;;;;;;5091073;28;20115;-81
2022/01/17 05:15:41;;;;;;;25.30;3.72;;;;;;;;;;5083732;28;20508;-81
2022/01/17 05:20:37;;;;;;;26.60;3.67;;;;;;;;;;5095013;28;20542;-81
2022/01/17 05:23:04;;;;;;;24.00;3.90;;;;;;;;;;5083696;28;20042;-81
2022/01/17 05:25:30;;;;;;;24.52;5.43;;;;;;;;;;5079454;28;20104;-81
2022/01/17 05:27:56;;;;;;;24.00;3.08;;;;;;;;;;5080882;28;20548;-83
2022/01/17 05:30:23;;;;;;;16.23;2.80;;;;;;;;;;5088403;28;20044;-81
2022/01/17 05:32:49;;;;;;;22.63;4.57;;;;;;;;;;5091787;28;20049;-81
2022/01/17 05:35:16;;;;;;;16.83;3.95;;;6.60;99.90;;;;;;5082220;28;20534;-82
2022/01/17 05:37:43;;;;;;;24.38;3.40;;;;;;;;;;5091669;27;20054;-81
2022/01/17 05:40:11;;;;;;;22.38;3.95;;;6.60;99.90;;;;;;5090040;28;20046;-81
2022/01/17 05:42:37;;;;;;;25.15;3.95;;;;;;;;;;5078766;28;20065;-81
2022/01/17 05:45:05;;;;;;;16.92;3.60;;;;;;;;;;5094073;28;20108;-81
2022/01/17 05:47:32;;;;;;;27.25;5.60;;;;;;;;;;5097457;28;20038;-81
2022/01/17 05:50:01;;;;;;;23.30;4.07;;;;;;;;;;5096328;28;20038;-82
2022/01/17 05:52:27;;;;;;;29.85;5.35;;;;;;;;;;5096380;28;20035;-80
2022/01/17 05:54:53;;;;;;;20.95;3.03;;;;;;;;;;5096702;28;20047;-82
2022/01/17 05:57:20;;;;;;;23.50;3.78;;;;;;;;;;5082848;28;20050;-81
2022/01/17 05:59:46;;;;;;;25.15;4.10;;;;;;;;;;5094348;28;20042;-82
2022/01/17 06:02:12;;;;;;;30.00;3.85;;;;;;;;;;5098349;28;20087;-81
2022/01/17 06:04:38;;;;;;;31.10;4.38;;;;;;;;;;5101926;28;20172;-82
2022/01/17 06:07:05;;;;;;;17.70;3.58;;;;;;;;;;5089631;28;20138;-81
2022/01/17 06:09:31;;;;;;;31.27;5.28;;;;;;;;;;5091234;28;20039;-82
2022/01/17 06:11:57;;;;;;;32.08;3.97;;;;;;;;;;5098823;28;20092;-81
2022/01/17 06:14:24;;;;;;;24.42;4.30;;;;;;;;;;5113872;27;20566;-82
2022/01/17 06:16:50;;;;;;;44.35;6.30;;;;;;;;;;5080495;27;20158;-83
2022/01/17 06:19:19;;;;;;;21.58;4.28;;;;;;;;;;5079601;28;20441;-82
2022/01/17 06:21:46;;;;;;;28.10;5.07;;;;;;;;;;5104196;27;20035;-82
2022/01/17 06:24:12;;;;;;;32.58;5.38;;;;;;;;;;5106069;27;20086;-83
2022/01/17 06:26:39;;;;;;;28.98;4.90;;;;;;;;;;5084990;27;20078;-82
2022/01/17 06:29:08;;;;;;;24.13;3.75;;;6.60;99.90;;;;;;5097350;27;20122;-82
2022/01/17 06:31:34;;;;;;;29.80;3.95;;;;;;;;;;5103458;27;20407;-83
2022/01/17 06:34:01;;;;;;;22.35;3.85;;;;;;;;;;5107480;27;20043;-83
2022/01/17 06:36:28;;;;;;;22.20;4.15;;;;;;;;;;5092941;27;20136;-82
2022/01/17 06:38:54;;;;;;;31.45;4.03;;;;;;;;;;5089120;27;20034;-82
2022/01/17 06:41:20;;;;;;;20.85;3.40;;;;;;;;;;5089096;27;20527;-82
2022/01/17 06:43:47;;;;;;;30.83;5.82;;;;;;;;;;5095368;27;20572;-82
2022/01/17 06:46:14;;;;;;;37.17;5.20;;;;;;;;;;5102076;27;20204;-82
2022/01/17 06:48:40;;;;;;;25.58;3.95;;;;;;;;;;5090605;28;20059;-82
2022/01/17 06:51:06;;;;;;;23.13;4.38;;;;;;;;;;5103384;27;20057;-82
2022/01/17 06:53:33;;;;;;;23.98;4.95;;;;;;;;;;5104805;27;20043;-82
2022/01/17 06:56:00;;;;;;;16.50;3.38;;;;;;;;;;5101445;27;20035;-82
2022/01/17 06:58:27;;;;;;;22.88;3.53;;;7.00;99.90;;;;;;5101617;27;20035;-82
2022/01/17 07:00:53;;;;;;;36.90;4.43;;;;;;;;;;5096080;27;20445;-82
2022/01/17 07:03:19;;;;;;;22.95;3.63;;;;;;;;;;5102442;27;20042;-82
2022/01/17 07:05:45;;;;;;;26.15;4.07;;;;;;;;;;5101061;27;20126;-82
2022/01/17 07:08:12;;;;;;;24.50;4.15;;;;;;;;;;5098259;27;20367;-82
2022/01/17 07:10:38;;;;;;;41.47;5.53;;;;;;;;;;5082925;28;20080;-81
2022/01/17 07:13:04;;;;;;;23.45;3.53;;;;;;;;;;5096999;27;20043;-81
2022/01/17 07:15:30;;;;;;;29.60;5.00;;;;;;;;;;5101683;27;20127;-81
2022/01/17 07:17:57;;;;;;;22.20;3.15;;;;;;;;;;5083131;27;20046;-81
2022/01/17 07:20:23;;;;;;;27.83;4.07;;;;;;;;;;5086374;27;20039;-81
2022/01/17 07:22:49;;;;;;;29.38;4.78;;;;;;;;;;5076191;27;20379;-82
2022/01/17 07:25:15;;;;;;;30.23;6.00;;;;;;;;;;5091163;27;20232;-81
2022/01/17 07:27:42;;;;;;;33.85;4.75;;;;;;;;;;5092750;27;20475;-81
2022/01/17 07:30:11;;;;;;;35.13;4.65;;;;;;;;;;5083580;27;20035;-81
2022/01/17 07:32:37;;;;;;;37.50;5.05;;;;;;;;;;5099637;27;20393;-81
2022/01/17 07:35:05;;;;;;;37.10;5.07;;;7.00;99.90;;;;;;5078828;27;20027;-81
2022/01/17 07:37:31;;;;;;;33.00;4.53;;;;;;;;;;5094945;27;20104;-80
2022/01/17 07:39:57;;;;;;;27.92;4.63;;;;;;;;;;5110946;27;20496;-81
2022/01/17 07:42:24;;;;;;;41.00;5.43;;;;;;;;;;5075438;27;20039;-81
2022/01/17 07:44:54;;;;;;;32.38;5.50;;;;;;;;;;5100217;27;20141;-81
2022/01/17 07:47:37;;;;;;;25.45;3.80;;;;;;;;;;5082328;27;20044;-81
2022/01/17 07:50:04;;;;;;;33.75;4.20;;;;;;;;;;5103314;27;20045;-81
2022/01/17 07:52:30;;;;;;;27.88;4.30;;;;;;;;;;5082682;27;20078;-81
2022/01/17 07:54:56;;;;;;;30.70;5.55;;;;;;;;;;5099013;27;20042;-81
2022/01/17 07:57:22;;;;;;;20.65;4.05;;;;;;;;;;5103022;27;20441;-80
2022/01/17 07:59:49;;;;;;;24.95;3.95;;;;;;;;;;5080534;28;20051;-80
2022/01/17 08:02:15;;;;;;;20.90;4.22;;;;;;;;;;5099205;27;20111;-80
2022/01/17 08:04:41;;;;;;;20.70;3.50;;;;;;;;;;5097859;27;20047;-80
2022/01/17 08:07:07;;;;;;;27.70;4.20;;;;;;;;;;5102415;27;20436;-81
2022/01/17 08:09:34;;;;;;;27.90;4.18;;;;;;;;;;5090580;27;20054;-80
2022/01/17 08:12:00;;;;;;;32.28;4.75;;;;;;;;;;5095242;27;20427;-81
2022/01/17 08:14:33;;;;;;;26.35;4.97;;;;;;;;;;5090514;27;20096;-80
2022/01/17 08:16:59;;;;;;;24.73;4.13;;;;;;;;;;5098052;27;20039;-80
2022/01/17 08:19:25;;;;;;;17.80;2.90;;;;;;;;;;5092944;27;20112;-80
2022/01/17 08:21:54;;;;;;;22.77;4.13;;;;;;;;;;5100297;27;20038;-80
2022/01/17 08:24:21;;;;;;;23.50;3.55;;;;;;;;;;5080887;27;20047;-80
2022/01/17 08:26:47;;;;;;;31.30;5.03;;;;;;;;;;5086831;27;20034;-80
2022/01/17 08:29:13;;;;;;;18.05;3.83;;;;;;;;;;5098106;27;20142;-79
2022/01/17 08:31:45;;;;;;;18.92;3.78;;;;;;;;;;5103042;27;20070;-79
2022/01/17 08:34:12;;;;;;;26.15;4.00;;;;;;;;;;5095290;27;20043;-80
2022/01/17 08:36:38;;;;;;;23.35;4.13;;;;;;;;;;5094439;27;20054;-80
2022/01/17 08:39:04;;;;;;;23.17;3.67;;;;;;;;;;5080263;27;20035;-79
2022/01/17 08:41:30;;;;;;;17.60;4.45;;;;;;;;;;5097062;27;20096;-80
2022/01/17 08:43:56;;;;;;;18.80;3.38;;;;;;;;;;5104093;27;20038;-80
2022/01/17 08:46:22;;;;;;;28.83;6.22;;;;;;;;;;5084798;28;20043;-83
2022/01/17 08:48:48;;;;;;;26.75;4.43;;;;;;;;;;5082704;27;20507;-80
2022/01/17 08:51:16;;;;;;;22.20;4.47;;;8.20;99.90;;;;;;5091395;28;20043;-82
2022/01/17 08:53:42;;;;;;;27.67;4.45;;;;;;;;;;5098715;27;20403;-84
2022/01/17 08:56:09;;;;;;;30.63;4.15;;;;;;;;;;5100942;27;20135;-83
2022/01/17 08:58:35;;;;;;;17.40;4.28;;;;;;;;;;5083465;27;20039;-81
2022/01/17 09:01:01;;;;;;;28.60;4.05;;;;;;;;;;5098448;27;20504;-81
2022/01/17 09:03:27;;;;;;;25.90;5.82;;;;;;;;;;5077986;28;20504;-83
2022/01/17 09:05:54;;;;;;;28.38;5.38;;;;;;;;;;5097942;28;21323;-82
2022/01/17 09:08:20;;;;;;;19.33;4.07;;;;;;;;;;5082108;28;20188;-83
2022/01/17 09:10:47;;;;;;;25.38;5.07;;;;;;;;;;5092170;27;20122;-81
2022/01/17 09:13:13;;;;;;;18.63;3.78;;;;;;;;;;5097940;27;20058;-81
2022/01/17 09:15:40;;;;;;;24.65;4.95;;;;;;;;;;5081886;28;20031;-79
2022/01/17 09:18:06;;;;;;;25.65;5.07;;;;;;;;;;5081476;28;20734;-79
2022/01/17 09:20:34;;;;;;;23.02;3.92;;;;;;;;;;5076233;28;20412;-79
2022/01/17 09:23:01;;;;;;;23.33;4.88;;;;;;;;;;5093163;28;20043;-80
2022/01/17 09:25:28;;;;;;;27.02;4.70;;;;;;;;;;5097430;28;20536;-80
2022/01/17 09:27:54;;;;;;;27.50;5.55;;;;;;;;;;5073526;27;20046;-80
2022/01/17 09:30:20;;;;;;;22.95;4.35;;;;;;;;;;5101561;28;20078;-81
2022/01/17 09:32:46;;;;;;;31.42;5.13;;;;;;;;;;5095129;28;20599;-81
2022/01/17 09:35:13;;;;;;;27.00;5.05;;;;;;;;;;5095949;28;20035;-81
2022/01/17 09:37:40;;;;;;;31.92;4.63;;;;;;;;;;5093758;28;20139;-81
2022/01/17 09:40:08;;;;;;;27.80;5.72;;;;;;;;;;5091400;28;20055;-81
2022/01/17 09:42:36;;;;;;;23.80;5.15;;;;;;;;;;5091000;28;20055;-81
2022/01/17 09:45:21;;;;;;;29.90;6.75;;;;;;;;;;5079282;28;20081;-81
2022/01/17 09:47:48;;;;;;;25.15;5.18;;;;;;;;;;5088249;28;20075;-81
2022/01/17 09:50:19;;;;;;;31.15;5.03;;;;;;;;;;5098778;28;20083;-81
2022/01/17 09:52:47;;;;;;;23.42;4.22;;;;;;;;;;5073478;28;20036;-81
2022/01/17 09:55:15;;;;;;;24.30;4.78;;;;;;;;;;5094431;28;20039;-81
2022/01/17 09:57:48;;;;;;;30.13;5.22;;;;;;;;;;5076929;28;20036;-80
2022/01/17 10:00:15;;;;;;;32.60;4.72;;;;;;;;;;5098556;28;20126;-80
2022/01/17 10:02:42;;;;;;;28.40;5.18;;;;;;;;;;5092151;28;20044;-80
2022/01/17 10:05:08;;;;;;;27.50;4.82;;;;;;;;;;5080197;28;20126;-80
2022/01/17 10:07:54;;;;;;;29.88;5.60;;;;;;;;;;5099055;28;20578;-80
2022/01/17 10:10:37;;;;;;;32.83;5.50;;;;;;;;;;5096164;28;20039;-80
2022/01/17 10:13:08;;;;;;;34.72;5.90;;;;;;;;;;5082296;28;20046;-80
2022/01/17 10:15:48;;;;;;;30.92;5.95;;;;;;;;;;5095295;28;20396;-80
2022/01/17 10:18:25;;;;;;;38.65;5.07;;;;;;;;;;5095390;28;20047;-80
2022/01/17 10:20:57;;;;;;;27.02;4.22;;;;;;;;;;5096115;28;20035;-80
2022/01/17 10:36:57;;;;;;;36.40;7.60;;;;;;;;;;5101472;28;20560;-80
2022/01/17 10:39:23;;;;;;;35.05;6.80;;;;;;;;;;5101399;27;20320;-80
2022/01/17 10:41:50;;;;;;;23.95;5.00;;;;;;;;;;5100290;28;20046;-80
2022/01/17 10:44:36;;;;;;;20.35;5.15;;;9.60;94.70;;;;;;5099249;28;20500;-80
2022/01/17 10:47:26;;;;;;;18.85;4.18;;;9.50;97.90;;;;;;5079401;28;20430;-80
2022/01/17 10:49:57;;;;;;;31.30;6.20;;;;;;;;;;5076586;28;20072;-80
2022/01/17 10:52:29;;;;;;;35.92;6.82;;;;;;;;;;5097303;28;20471;-79
2022/01/17 10:54:56;;;;;;;38.05;6.63;;;;;;;;;;5093919;28;20471;-79
2022/01/17 10:57:23;;;;;;;32.45;6.47;;;;;;;;;;5096416;28;20071;-79
2022/01/17 10:59:51;;;;;;;40.75;8.18;;;;;;;;;;5084143;28;20032;-79
2022/01/17 11:02:18;;;;;;;33.55;6.45;;;;;;;;;;5097209;28;20047;-79
2022/01/17 11:04:49;;;;;;;38.75;7.30;;;;;;;;;;5083209;28;20451;-79
2022/01/17 11:07:15;;;;;;;30.80;6.82;;;;;;;;;;5078078;28;20097;-79
2022/01/17 11:09:47;;;;;;;37.40;6.28;;;;;;;;;;5087920;28;20048;-79
2022/01/17 11:12:14;;;;;;;39.50;7.40;;;;;;;;;;5100138;28;20047;-79
2022/01/17 11:14:41;;;;;;;37.97;5.90;;;;;;;;;;5082396;28;20044;-79
2022/01/17 11:17:14;;;;;;;35.33;7.32;;;;;;;;;;5073750;28;20074;-80
2022/01/17 11:22:26;;;;;;;;;;;;;;;;;;5096019;28;20492;-80
2022/01/17 11:24:53;;;;;;;38.53;7.13;;;;;;;;;;5082500;28;19965;-80
2022/01/17 11:27:19;;;;;;;36.83;7.93;;;;;;;;;;5096787;28;20044;-80
2022/01/17 11:29:47;;;;;;;31.85;7.30;;;;;;;;;;5079076;28;20475;-80
2022/01/17 11:32:13;;;;;;;46.47;8.05;;;;;;;;;;5092705;27;20051;-80
2022/01/17 11:34:39;;;;;;;37.97;7.13;;;;;;;;;;5107678;27;20035;-80
2022/01/17 11:37:06;;;;;;;43.38;7.45;;;;;;;;;;5093602;27;20139;-80
2022/01/17 11:39:33;;;;;;;38.47;6.03;;;;;;;;;;5081666;28;20134;-80
2022/01/17 11:41:59;;;;;;;33.72;7.40;;;;;;;;;;5093846;27;20595;-80
2022/01/17 11:44:33;;;;;;;36.40;5.97;;;;;;;;;;5082029;28;20043;-80
2022/01/17 11:46:59;;;;;;;41.55;6.50;;;;;;;;;;5071611;28;20058;-80
2022/01/17 11:49:35;;;;;;;30.63;7.40;;;;;;;;;;5076760;28;20046;-80
2022/01/17 11:52:01;;;;;;;43.75;7.85;;;;;;;;;;5083233;28;20043;-80
2022/01/17 11:54:29;;;;;;;41.03;8.73;;;;;;;;;;5080491;28;20039;-80
2022/01/17 11:57:02;;;;;;;42.60;7.20;;;;;;;;;;5089241;28;20035;-80
2022/01/17 11:59:40;;;;;;;44.97;7.45;;;;;;;;;;5083221;28;20031;-80
2022/01/17 12:02:26;;;;;;;43.05;7.32;;;;;;;;;;5089834;28;20036;-80
2022/01/17 12:05:07;;;;;;;24.23;5.03;;;;;;;;;;5090670;28;20051;-80
2022/01/17 12:07:40;;;;;;;32.08;6.13;;;;;;;;;;5079172;28;20222;-80
2022/01/17 12:10:10;;;;;;;38.92;6.45;;;;;;;;;;5097991;28;20092;-80
2022/01/17 12:12:37;;;;;;;42.85;7.68;;;;;;;;;;5077325;28;20050;-80
2022/01/17 12:15:08;;;;;;;47.40;7.80;;;;;;;;;;5078936;28;20036;-80
2022/01/17 12:17:36;;;;;;;41.25;5.80;;;;;;;;;;5097765;28;20044;-80
2022/01/17 12:20:05;;;;;;;34.10;6.95;;;12.20;1.00;;;;;;5100865;28;20353;-80
2022/01/17 12:22:40;;;;;;;27.48;5.57;;;;;;;;;;5084604;28;20088;-80
2022/01/17 12:25:06;;;;;;;;;;;;;;;;;;5098352;28;20036;-80
2022/01/17 12:27:32;;;;;;;33.90;7.32;;;;;;;;;;5095115;28;19926;-80
2022/01/17 12:30:09;;;;;;;36.45;6.68;;;;;;;;;;5098862;28;20047;-80
2022/01/17 12:32:36;;;;;;;49.33;7.35;;;;;;;;;;5095270;28;20043;-80
2022/01/17 12:35:05;;;;;;;57.97;9.38;;;;;;;;;;5074834;28;20042;-80
2022/01/17 12:37:36;;;;;;;49.28;8.52;;;;;;;;;;5096747;27;20555;-80
2022/01/17 12:40:20;;;;;;;32.80;6.25;;;;;;;;;;5078964;28;20043;-80
2022/01/17 12:42:55;;;;;;;37.70;7.20;;;11.90;1.00;;;;;;5106415;27;20050;-80
2022/01/17 12:45:36;;;;;;;36.65;6.50;;;11.80;1.00;;;;;;5072018;28;20103;-80
2022/01/17 12:48:07;;;;;;;52.13;9.18;;;;;;;;;;5076147;28;20070;-80
2022/01/17 12:50:36;;;;;;;44.38;8.55;;;;;;;;;;5081095;28;20443;-80
2022/01/17 12:53:03;;;;;;;44.13;7.35;;;;;;;;;;5090199;28;20042;-80
2022/01/17 12:55:35;;;;;;;56.20;7.70;;;;;;;;;;5095845;28;20032;-80
2022/01/17 12:58:02;;;;;;;40.78;7.50;;;;;;;;;;5092875;28;20450;-80
2022/01/17 13:00:28;;;;;;;36.72;7.28;;;;;;;;;;5094440;28;20031;-80
2022/01/17 13:02:54;;;;;;;49.17;7.18;;;;;;;;;;5099069;28;20066;-80
2022/01/17 13:05:22;;;;;;;43.45;8.52;;;;;;;;;;5083762;28;20079;-80
2022/01/17 13:07:48;;;;;;;51.33;8.10;;;;;;;;;;5098521;28;20108;-80
2022/01/17 13:10:15;;;;;;;51.63;8.70;;;;;;;;;;5098674;28;20067;-80
2022/01/17 13:12:42;;;;;;;42.42;7.15;;;;;;;;;;5077913;28;20123;-80
2022/01/17 13:15:10;;;;;;;58.85;10.45;;;10.50;1.00;;;;;;5098290;28;20117;-80
2022/01/17 13:17:37;;;;;;;49.40;8.88;;;;;;;;;;5091781;28;20040;-80
2022/01/17 13:20:04;;;;;;;43.15;8.65;;;;;;;;;;5095041;28;20118;-80
2022/01/17 13:22:38;;;;;;;43.88;7.68;;;;;;;;;;5096138;28;20067;-80
2022/01/17 13:25:06;;;;;;;37.67;7.63;;;9.50;14.20;;;;;;5098093;28;20043;-80
2022/01/17 13:27:33;;;;;;;45.85;6.65;;;;;;;;;;5101614;28;20077;-80
2022/01/17 13:30:05;;;;;;;46.20;7.78;;;;;;;;;;5095477;28;20181;-80
2022/01/17 13:32:36;;;;;;;48.78;7.65;;;;;;;;;;5081609;28;20123;-80
2022/01/17 13:35:06;;;;;;;32.75;6.28;;;;;;;;;;5077152;28;20523;-80
2022/01/17 13:37:32;;;;;;;50.03;8.40;;;;;;;;;;5094036;28;20066;-80
2022/01/17 13:39:59;;;;;;;53.38;9.10;;;;;;;;;;5097035;28;20124;-80
2022/01/17 13:42:25;;;;;;;49.90;8.75;;;;;;;;;;5075743;28;20070;-80
2022/01/17 13:44:51;;;;;;;43.42;8.90;;;;;;;;;;5094675;28;20040;-80
2022/01/17 13:47:17;;;;;;;31.67;6.85;;;;;;;;;;5099028;28;20043;-81
2022/01/17 13:49:45;;;;;;;49.20;9.75;;;;;;;;;;5100636;28;20051;-81
2022/01/17 13:52:12;;;;;;;36.45;7.78;;;;;;;;;;5087678;28;20485;-81
2022/01/17 13:54:40;;;;;;;36.63;5.93;;;;;;;;;;5084907;28;20110;-81
2022/01/17 13:57:13;;;;;;;39.75;7.25;;;;;;;;;;5081397;28;20046;-81
2022/01/17 13:59:40;;;;;;;37.60;6.47;;;;;;;;;;5077236;28;20043;-81
2022/01/17 14:02:16;;;;;;;38.40;7.28;;;;;;;;;;5097676;28;20032;-80
2022/01/17 14:04:42;;;;;;;44.38;8.07;;;;;;;;;;5095687;28;20416;-81
2022/01/17 14:07:25;;;;;;;50.40;7.63;;;;;;;;;;5100300;28;20079;-81
2022/01/17 14:09:52;;;;;;;48.63;8.00;;;;;;;;;;5097837;28;20074;-81
2022/01/17 14:12:19;;;;;;;34.40;6.97;;;;;;;;;;5098081;28;20047;-81
2022/01/17 14:14:53;;;;;;;43.58;7.05;;;;;;;;;;5090853;27;20123;-81
2022/01/17 14:17:42;;;;;;;69.22;9.25;;;;;;;;;;5073775;28;20439;-81
2022/01/17 14:20:15;;;;;;;55.47;7.95;;;;;;;;;;5092426;28;20042;-81
2022/01/17 14:22:51;;;;;;;53.95;9.65;;;10.30;14.60;;;;;;5095070;28;20433;-81
2022/01/17 14:25:18;;;;;;;44.72;7.03;;;;;;;;;;5079237;28;20058;-81
2022/01/17 14:27:56;;;;;;;58.65;8.07;;;;;;;;;;5076843;28;20040;-81
2022/01/17 14:30:29;;;;;;;26.00;6.43;;;;;;;;;;5097102;28;20045;-81
2022/01/17 14:33:17;;;;;;;49.88;8.32;;;;;;;;;;5080922;28;20070;-81
2022/01/17 14:36:02;;;;;;;49.63;8.45;;;;;;;;;;5069015;28;20079;-81
2022/01/17 14:38:28;;;;;;;51.38;8.43;;;;;;;;;;5099618;27;20048;-81
2022/01/17 14:40:54;;;;;;;46.90;7.30;;;;;;;;;;5102723;27;20094;-81
2022/01/17 14:43:29;;;;;;;44.22;7.15;;;;;;;;;;5085252;28;20043;-81
2022/01/17 14:46:00;;;;;;;53.35;7.40;;;;;;;;;;5099057;28;20454;-81
2022/01/17 14:48:33;;;;;;;43.55;7.32;;;;;;;;;;5095700;28;20237;-81
2022/01/17 14:51:19;;;;;;;41.63;7.93;;;;;;;;;;5080211;28;20412;-81
2022/01/17 14:53:47;;;;;;;35.85;6.82;;;;;;;;;;5075007;28;20044;-81
2022/01/17 15:02:30;;;;;;;45.60;7.22;;;;;;;;;;5090724;28;20036;-81
2022/01/17 15:04:36;;;;;;;44.22;7.88;;;;;;;;;;5081747;28;20086;-81
2022/01/17 15:07:04;;;;;;;51.65;8.35;;;8.80;64.90;;;;;;5096811;28;20047;-81
2022/01/17 15:09:30;;;;;;;52.67;7.45;;;;;;;;;;5075504;28;20048;-81